fbpx

Weather

Glasgow International Airport – EGPF

METAR:

EGPF 192150Z AUTO 23005KT 9999 NCD 08/03 Q1019


TAF:

TAF EGPF 191656Z 1918/2018 24008KT 9999 FEW045 TEMPO 2005/2015 8000 -RA BKN012


Prestwick International Airport – EGPK

METAR:

EGPK 192150Z VRB02KT CAVOK 09/02 Q1019


TAF:

TAF EGPK 191656Z 1918/2018 24009KT 9999 FEW045 TEMPO 2004/2015 8000 -RA BKN012 PROB30 TEMPO 2009/2013 BKN008

Call Now ButtonCall us now